Terminal Aerodrome Forecast
Issued by NWS

Home | Current Version | Previous Version | Text Only | Print | Product List | Glossary On
Versions: 1 2 3 4 5 6 7 8 9 10 11 12 13 14 15 16 17 18 19 20
000
FTPQ31 PGUM 220815 RRP
TAFTPN
TAF
PTPN 220815Z 2208/2306 24007KT P6SM SHRA BKN015 OVC120
      TEMPO 2208/2212 VRB12G22KT 3SM +SHRA OVC015
     FM222300 17010KT P6SM VCSH BKN018 BKN120=

USA.gov is the U.S. government's official web portal to all federal, state and local government web resources and services.